Time;durP1;ratioP1;P1;durP2;ratioP2;P2;SDS_P1;SDS_P2;PMS_P1;PMS_P2;Temp;Humidity;BMP_temperature;BMP_pressure;BME280_temperature;BME280_humidity;BME280_pressure;Samples;Min_cycle;Max_cycle;Signal;HPM_P1;HPM_P2
2023/09/13 00:00:31;;;;;;;11.20;8.40;;;19.20;99.90;;;;;;4890219;29;20056;-68
2023/09/13 00:03:03;;;;;;;9.93;7.55;;;19.10;99.90;;;;;;4909320;29;20152;-69
2023/09/13 00:05:35;;;;;;;8.45;6.20;;;19.10;99.90;;;;;;4893083;29;20044;-68
2023/09/13 00:08:06;;;;;;;5.88;5.18;;;19.10;99.90;;;;;;4897158;29;20052;-68
2023/09/13 00:10:38;;;;;;;7.28;5.28;;;19.20;99.90;;;;;;4884211;29;20554;-68
2023/09/13 00:13:11;;;;;;;6.15;4.45;;;19.20;99.90;;;;;;4888274;29;21005;-68
2023/09/13 00:15:44;;;;;;;6.80;5.07;;;19.30;99.90;;;;;;4900794;29;20509;-68
2023/09/13 00:18:16;;;;;;;5.25;4.60;;;19.40;99.90;;;;;;4886065;29;20422;-68
2023/09/13 00:20:43;;;;;;;5.47;4.32;;;19.40;99.90;;;;;;4883932;29;20109;-69
2023/09/13 00:23:15;;;;;;;7.72;4.40;;;19.60;99.90;;;;;;4904835;29;20441;-69
2023/09/13 00:25:42;;;;;;;6.90;4.93;;;19.60;99.90;;;;;;4901075;29;20051;-68
2023/09/13 00:28:10;;;;;;;6.72;4.20;;;19.60;99.90;;;;;;4887040;29;20048;-68
2023/09/13 00:30:42;;;;;;;6.90;4.50;;;19.70;99.90;;;;;;4903068;29;20045;-68
2023/09/13 00:33:13;;;;;;;5.75;4.30;;;19.70;99.90;;;;;;4891282;29;20057;-68
2023/09/13 00:35:46;;;;;;;4.97;4.22;;;19.70;99.90;;;;;;4884949;29;20040;-68
2023/09/13 00:38:18;;;;;;;7.47;5.32;;;19.80;99.90;;;;;;4883730;29;20053;-68
2023/09/13 00:40:51;;;;;;;6.50;4.18;;;19.80;99.90;;;;;;4897609;29;20156;-68
2023/09/13 00:43:24;;;;;;;;;;;19.80;99.90;;;;;;4899704;29;20055;-68
2023/09/13 00:45:57;;;;;;;4.65;4.03;;;19.90;99.90;;;;;;4884911;29;20414;-68
2023/09/13 00:48:30;;;;;;;6.97;4.18;;;19.90;99.90;;;;;;4890962;29;20037;-68
2023/09/13 00:51:03;;;;;;;4.20;3.58;;;20.00;99.90;;;;;;4896884;29;20121;-68
2023/09/13 00:53:36;;;;;;;4.82;4.32;;;20.00;99.90;;;;;;4898181;29;20049;-68
2023/09/13 00:56:08;;;;;;;7.65;4.35;;;20.10;99.90;;;;;;4899037;29;20045;-69
2023/09/13 00:58:40;;;;;;;6.13;4.20;;;20.10;99.90;;;;;;4893565;29;20052;-69
2023/09/13 01:01:13;;;;;;;5.45;3.85;;;20.10;99.90;;;;;;4891704;29;20064;-68
2023/09/13 01:03:42;;;;;;;5.35;4.03;;;20.20;99.90;;;;;;4877248;29;20132;-69
2023/09/13 01:06:15;;;;;;;6.22;4.20;;;20.20;99.90;;;;;;4891389;29;20098;-68
2023/09/13 01:08:47;;;;;;;6.13;4.05;;;20.20;99.90;;;;;;4891551;29;20483;-69
2023/09/13 01:11:20;;;;;;;5.75;5.05;;;20.20;99.90;;;;;;4888229;29;20044;-68
2023/09/13 01:13:52;;;;;;;7.28;4.32;;;20.20;99.90;;;;;;4897743;29;20052;-68
2023/09/13 01:16:41;;;;;;;6.65;4.60;;;20.10;99.90;;;;;;4883304;29;20041;-69
2023/09/13 01:19:19;;;;;;;5.30;3.90;;;20.10;99.90;;;;;;4882044;29;20056;-68
2023/09/13 01:22:09;;;;;;;7.20;4.50;;;20.00;99.90;;;;;;4896606;29;20057;-68
2023/09/13 01:25:06;;;;;;;8.93;4.00;;;19.90;99.90;;;;;;4900710;29;20044;-68
2023/09/13 01:27:47;;;;;;;6.05;4.57;;;19.90;99.90;;;;;;4866103;29;20509;-68
2023/09/13 01:30:21;;;;;;;5.90;4.13;;;19.80;99.90;;;;;;4901099;29;20049;-68
2023/09/13 01:32:50;;;;;;;5.40;4.07;;;19.80;99.90;;;;;;4892909;29;20041;-68
2023/09/13 01:35:22;;;;;;;5.18;4.20;;;19.80;99.90;;;;;;4903843;29;20413;-68
2023/09/13 01:37:54;;;;;;;5.32;4.22;;;19.80;99.90;;;;;;4890986;29;20400;-68
2023/09/13 01:40:32;;;;;;;7.45;4.40;;;19.70;99.90;;;;;;4882923;29;20059;-69
2023/09/13 01:43:04;;;;;;;7.03;4.40;;;19.70;99.90;;;;;;4880514;29;20068;-69
2023/09/13 01:45:37;;;;;;;5.55;4.30;;;19.70;99.90;;;;;;4876205;29;20141;-67
2023/09/13 01:48:10;;;;;;;5.97;4.35;;;19.70;99.90;;;;;;4890538;29;20051;-68
2023/09/13 01:50:43;;;;;;;15.73;5.78;;;19.70;99.90;;;;;;4883004;29;20047;-68
2023/09/13 01:53:15;;;;;;;7.50;5.88;;;19.70;99.90;;;;;;4883610;29;20056;-68
2023/09/13 01:55:47;;;;;;;5.85;4.50;;;19.70;99.90;;;;;;4880974;29;20157;-69
2023/09/13 01:58:19;;;;;;;8.15;4.90;;;19.70;99.90;;;;;;4897759;29;20136;-68
2023/09/13 02:00:46;;;;;;;6.55;4.85;;;19.70;99.90;;;;;;4893259;29;20044;-68
2023/09/13 02:03:18;;;;;;;5.28;4.63;;;19.70;99.90;;;;;;4897488;29;20053;-69
2023/09/13 02:05:45;;;;;;;5.43;4.60;;;19.70;99.90;;;;;;4904866;29;20120;-68
2023/09/13 02:08:17;;;;;;;13.38;5.22;;;19.70;99.90;;;;;;4891413;29;20063;-68
2023/09/13 02:10:48;;;;;;;5.32;4.53;;;19.80;99.90;;;;;;4908862;29;20037;-68
2023/09/13 02:13:19;;;;;;;7.55;5.00;;;19.80;99.90;;;;;;4879301;29;20045;-68
2023/09/13 02:15:51;;;;;;;5.22;4.50;;;19.80;99.90;;;;;;4885748;29;20536;-68
2023/09/13 02:18:23;;;;;;;5.22;4.72;;;19.80;99.90;;;;;;4889728;29;20080;-69
2023/09/13 02:20:55;;;;;;;6.22;4.47;;;19.80;99.90;;;;;;4903439;29;20056;-68
2023/09/13 02:23:27;;;;;;;7.15;4.65;;;19.80;99.90;;;;;;4904069;29;20054;-69
2023/09/13 02:25:58;;;;;;;6.07;4.85;;;19.70;99.90;;;;;;4885860;29;20493;-68
2023/09/13 02:28:31;;;;;;;11.23;5.05;;;19.80;99.90;;;;;;4899111;29;20049;-69
2023/09/13 02:31:02;;;;;;;9.60;5.13;;;19.70;99.90;;;;;;4878190;29;20054;-68
2023/09/13 02:33:29;;;;;;;5.63;4.32;;;19.70;99.90;;;;;;4895382;29;20139;-69
2023/09/13 02:36:01;;;;;;;5.95;4.90;;;19.80;99.90;;;;;;4893762;29;20037;-69
2023/09/13 02:38:33;;;;;;;6.68;5.03;;;19.80;99.90;;;;;;4895754;29;20072;-68
2023/09/13 02:41:06;;;;;;;7.68;5.10;;;19.80;99.90;;;;;;4898696;29;20452;-68
2023/09/13 02:43:42;;;;;;;7.57;5.07;;;19.80;99.90;;;;;;4885143;29;20139;-68
2023/09/13 02:46:14;;;;;;;11.13;6.38;;;19.80;99.90;;;;;;4886234;29;20060;-68
2023/09/13 02:48:41;;;;;;;6.13;4.82;;;19.80;99.90;;;;;;4891279;29;20048;-68
2023/09/13 02:51:14;;;;;;;5.03;4.22;;;19.80;99.90;;;;;;4887126;29;20049;-68
2023/09/13 02:53:41;;;;;;;6.95;5.05;;;19.80;99.90;;;;;;4904243;29;20097;-68
2023/09/13 02:56:13;;;;;;;8.45;5.57;;;19.80;99.90;;;;;;4903760;29;20049;-68
2023/09/13 02:58:45;;;;;;;5.60;4.47;;;19.80;99.90;;;;;;4889340;29;20136;-68
2023/09/13 03:01:17;;;;;;;6.65;4.95;;;19.80;99.90;;;;;;4893492;29;20865;-68
2023/09/13 03:03:49;;;;;;;6.05;5.20;;;19.80;99.90;;;;;;4887892;29;20072;-68
2023/09/13 03:06:21;;;;;;;7.97;5.45;;;19.80;99.90;;;;;;4893293;29;20055;-69
2023/09/13 03:08:54;;;;;;;6.43;5.13;;;19.80;99.90;;;;;;4894645;29;20055;-68
2023/09/13 03:11:26;;;;;;;6.82;5.53;;;19.80;99.90;;;;;;4908410;29;20055;-69
2023/09/13 03:13:53;;;;;;;8.48;5.43;;;19.80;99.90;;;;;;4906411;29;20782;-68
2023/09/13 03:16:21;;;;;;;7.32;4.90;;;19.70;99.90;;;;;;4905023;29;20044;-69
2023/09/13 03:18:50;;;;;;;6.93;4.95;;;19.80;99.90;;;;;;4904301;29;20053;-68
2023/09/13 03:21:27;;;;;;;7.22;5.30;;;19.80;99.90;;;;;;4885439;29;20788;-69
2023/09/13 03:23:59;;;;;;;7.53;5.10;;;19.70;99.90;;;;;;4886995;29;20073;-68
2023/09/13 03:26:32;;;;;;;10.57;4.93;;;19.70;99.90;;;;;;4902082;29;20076;-68
2023/09/13 03:29:04;;;;;;;7.32;5.22;;;19.70;99.90;;;;;;4907146;29;20049;-68
2023/09/13 03:31:38;;;;;;;7.47;5.30;;;19.60;99.90;;;;;;4908449;29;20513;-69
2023/09/13 03:34:12;;;;;;;5.82;5.10;;;19.60;99.90;;;;;;4894176;29;20041;-68
2023/09/13 03:36:44;;;;;;;7.97;5.75;;;19.60;99.90;;;;;;4893077;29;20506;-68
2023/09/13 03:39:16;;;;;;;6.55;5.13;;;19.60;99.90;;;;;;4876131;29;20045;-68
2023/09/13 03:41:48;;;;;;;6.07;4.70;;;19.60;99.90;;;;;;4908548;29;20481;-68
2023/09/13 03:44:20;;;;;;;5.80;5.20;;;19.60;99.90;;;;;;4881510;29;20191;-68
2023/09/13 03:46:52;;;;;;;6.82;4.68;;;19.50;99.90;;;;;;4890806;29;20108;-68
2023/09/13 03:49:24;;;;;;;8.38;6.25;;;19.50;99.90;;;;;;4890315;29;20045;-69
2023/09/13 03:51:56;;;;;;;7.28;5.05;;;19.50;99.90;;;;;;4887194;29;20596;-68
2023/09/13 03:54:29;;;;;;;5.85;5.05;;;19.40;99.90;;;;;;4887413;29;20045;-68
2023/09/13 03:57:01;;;;;;;6.78;5.20;;;19.40;99.90;;;;;;4885536;29;20139;-68
2023/09/13 03:59:28;;;;;;;7.28;5.20;;;19.30;99.90;;;;;;4905961;29;20048;-68
2023/09/13 04:02:00;;;;;;;10.90;5.75;;;19.30;99.90;;;;;;4870654;29;20786;-68
2023/09/13 04:04:32;;;;;;;7.47;5.38;;;19.30;99.90;;;;;;4902425;29;20068;-68
2023/09/13 04:07:04;;;;;;;6.45;5.40;;;19.20;99.90;;;;;;4894752;29;20437;-68
2023/09/13 04:09:35;;;;;;;11.48;5.65;;;19.20;99.90;;;;;;4893340;29;20069;-68
2023/09/13 04:12:02;;;;;;;7.60;5.60;;;19.20;99.90;;;;;;4898266;29;20033;-68
2023/09/13 04:14:29;;;;;;;8.90;6.07;;;19.20;99.90;;;;;;4905369;29;20067;-68
2023/09/13 04:17:01;;;;;;;7.60;5.60;;;19.20;99.90;;;;;;4884217;29;20055;-68
2023/09/13 04:19:33;;;;;;;7.80;5.47;;;19.20;99.90;;;;;;4862383;29;20049;-67
2023/09/13 04:22:04;;;;;;;8.55;6.07;;;19.20;99.90;;;;;;4906600;29;20048;-68
2023/09/13 04:24:36;;;;;;;8.15;6.38;;;19.20;99.90;;;;;;4893652;29;20072;-68
2023/09/13 04:27:08;;;;;;;6.60;5.70;;;19.30;99.90;;;;;;4908341;29;20509;-68
2023/09/13 04:29:39;;;;;;;8.13;5.63;;;19.30;99.90;;;;;;4908165;29;20096;-68
2023/09/13 04:32:11;;;;;;;8.90;6.30;;;19.30;99.90;;;;;;4905652;29;20467;-68
2023/09/13 04:34:46;;;;;;;9.10;6.60;;;19.30;99.90;;;;;;4910150;29;20122;-68
2023/09/13 04:37:18;;;;;;;7.72;5.90;;;19.30;99.90;;;;;;4891919;29;20052;-68
2023/09/13 04:39:50;;;;;;;10.25;5.88;;;19.20;99.90;;;;;;4878193;29;20131;-68
2023/09/13 04:42:22;;;;;;;7.50;5.93;;;19.20;99.90;;;;;;4888403;29;20104;-68
2023/09/13 04:44:49;;;;;;;9.63;5.65;;;19.20;99.90;;;;;;4907194;29;20040;-68
2023/09/13 04:47:21;;;;;;;6.80;6.07;;;19.20;99.90;;;;;;4885651;29;20045;-68
2023/09/13 04:49:53;;;;;;;9.13;5.75;;;19.20;99.90;;;;;;4883220;29;20113;-68
2023/09/13 04:52:25;;;;;;;7.85;5.93;;;19.20;99.90;;;;;;4901218;29;20591;-68
2023/09/13 04:54:57;;;;;;;6.82;5.40;;;19.20;99.90;;;;;;4894321;29;20528;-68
2023/09/13 04:57:24;;;;;;;7.10;6.07;;;19.10;99.90;;;;;;4910727;29;20069;-68
2023/09/13 04:59:52;;;;;;;8.27;5.40;;;19.10;99.90;;;;;;4901698;29;20114;-68
2023/09/13 05:02:24;;;;;;;5.53;4.97;;;19.10;99.90;;;;;;4893768;29;20037;-68
2023/09/13 05:04:56;;;;;;;7.78;5.43;;;19.00;99.90;;;;;;4903832;29;20044;-68
2023/09/13 05:07:28;;;;;;;7.95;5.00;;;18.90;99.90;;;;;;4888492;29;20043;-68
2023/09/13 05:10:00;;;;;;;5.80;5.05;;;18.90;99.90;;;;;;4916308;29;20067;-68
2023/09/13 05:12:32;;;;;;;8.02;5.25;;;18.80;99.90;;;;;;4899202;29;20124;-68
2023/09/13 05:15:04;;;;;;;7.00;4.95;;;18.70;99.90;;;;;;4911358;29;20210;-68
2023/09/13 05:17:31;;;;;;;5.78;5.15;;;18.60;99.90;;;;;;4898907;29;20040;-66
2023/09/13 05:20:04;;;;;;;6.30;5.32;;;18.50;99.90;;;;;;4892614;29;20055;-68
2023/09/13 05:22:36;;;;;;;7.13;5.23;;;18.40;99.90;;;;;;4891711;29;20041;-68
2023/09/13 05:25:03;;;;;;;7.20;6.25;;;18.40;99.90;;;;;;4908325;29;20079;-68
2023/09/13 05:27:35;;;;;;;9.38;5.57;;;18.30;99.90;;;;;;4908176;29;20127;-68
2023/09/13 05:30:07;;;;;;;8.93;4.90;;;18.30;99.90;;;;;;4889799;29;20411;-68
2023/09/13 05:32:39;;;;;;;7.30;5.97;;;18.20;99.90;;;;;;4888404;29;20061;-68
2023/09/13 05:35:16;;;;;;;6.15;5.50;;;18.20;99.90;;;;;;4887509;29;20123;-68
2023/09/13 05:37:48;;;;;;;7.88;5.35;;;18.20;99.90;;;;;;4891884;29;20072;-68
2023/09/13 05:40:20;;;;;;;8.13;5.47;;;18.20;99.90;;;;;;4881048;29;20521;-68
2023/09/13 05:42:52;;;;;;;11.10;6.35;;;18.10;99.90;;;;;;4869772;29;20540;-68
2023/09/13 05:45:24;;;;;;;6.35;5.75;;;18.10;99.90;;;;;;4892940;29;20526;-68
2023/09/13 05:47:59;;;;;;;7.53;5.95;;;18.20;99.90;;;;;;4884850;29;20554;-68
2023/09/13 05:50:31;;;;;;;6.30;5.70;;;18.20;99.90;;;;;;4886430;29;20413;-68
2023/09/13 05:53:03;;;;;;;8.32;5.32;;;18.20;99.90;;;;;;4888567;29;20051;-68
2023/09/13 05:55:36;;;;;;;6.22;5.28;;;18.30;99.90;;;;;;4888466;29;20041;-68
2023/09/13 05:58:08;;;;;;;6.63;5.35;;;18.30;99.90;;;;;;4903464;29;20045;-67
2023/09/13 06:00:47;;;;;;;7.27;5.10;;;18.40;99.90;;;;;;4907021;29;20045;-68
2023/09/13 06:03:20;;;;;;;6.20;5.25;;;18.30;99.90;;;;;;4890836;29;20056;-68
2023/09/13 06:05:52;;;;;;;7.85;6.18;;;18.40;99.90;;;;;;4913259;29;20044;-69
2023/09/13 06:08:24;;;;;;;7.93;6.15;;;18.40;99.90;;;;;;4896822;29;20040;-68
2023/09/13 06:10:50;;;;;;;8.30;5.15;;;18.40;99.90;;;;;;4896537;29;20586;-68
2023/09/13 06:13:22;;;;;;;7.68;5.85;;;18.50;99.90;;;;;;4902972;29;20049;-68
2023/09/13 06:15:54;;;;;;;8.70;6.40;;;18.60;99.90;;;;;;4897816;29;20505;-68
2023/09/13 06:18:25;;;;;;;9.38;6.28;;;18.60;99.90;;;;;;4902294;29;20409;-69
2023/09/13 06:20:57;;;;;;;10.82;7.25;;;18.70;99.90;;;;;;4882769;29;20049;-68
2023/09/13 06:23:37;;;;;;;8.35;6.50;;;18.80;99.90;;;;;;4902564;29;20041;-68
2023/09/13 06:26:05;;;;;;;8.15;7.35;;;18.80;99.90;;;;;;4897977;29;20044;-68
2023/09/13 06:28:32;;;;;;;9.57;7.20;;;18.80;99.90;;;;;;4893146;29;20047;-68
2023/09/13 06:31:04;;;;;;;8.50;7.05;;;18.80;99.90;;;;;;4910343;29;20048;-68
2023/09/13 06:33:36;;;;;;;10.52;8.13;;;18.90;99.90;;;;;;4907777;29;20131;-69
2023/09/13 06:36:08;;;;;;;13.25;8.75;;;18.90;99.90;;;;;;4901024;29;20128;-68
2023/09/13 06:38:40;;;;;;;11.55;8.45;;;18.90;99.90;;;;;;4884811;29;20124;-68
2023/09/13 06:41:12;;;;;;;11.07;8.45;;;19.00;99.90;;;;;;4901221;29;20049;-68
2023/09/13 06:43:44;;;;;;;16.65;10.55;;;19.00;99.90;;;;;;4900719;29;20071;-68
2023/09/13 06:46:11;;;;;;;71.95;32.75;;;19.10;99.90;;;;;;4901930;29;20052;-66
2023/09/13 06:48:43;;;;;;;59.28;27.75;;;19.20;99.90;;;;;;4893477;29;20501;-68
2023/09/13 06:51:10;;;;;;;13.30;9.35;;;19.20;99.90;;;;;;4894663;29;20052;-68
2023/09/13 06:53:42;;;;;;;9.23;8.18;;;19.20;99.90;;;;;;4889277;29;20127;-68
2023/09/13 06:56:14;;;;;;;10.57;8.83;;;19.10;99.90;;;;;;4891773;29;20060;-67
2023/09/13 06:58:46;;;;;;;12.10;8.43;;;19.20;99.90;;;;;;4876836;29;20041;-68
2023/09/13 07:01:13;;;;;;;14.73;12.10;;;19.20;99.90;;;;;;4907867;29;20053;-68
2023/09/13 07:03:45;;;;;;;15.50;12.20;;;19.30;99.90;;;;;;4892098;29;20060;-68
2023/09/13 07:06:12;;;;;;;13.90;10.80;;;19.30;99.90;;;;;;4874304;29;20281;-68
2023/09/13 07:08:39;;;;;;;11.02;9.13;;;19.40;99.90;;;;;;4889372;29;20131;-67
2023/09/13 07:11:05;;;;;;;10.82;9.43;;;19.50;99.90;;;;;;4883291;29;20037;-68
2023/09/13 07:13:37;;;;;;;9.73;8.65;;;19.50;99.90;;;;;;4877478;29;20048;-68
2023/09/13 07:16:09;;;;;;;11.23;9.32;;;19.60;99.90;;;;;;4912337;29;20145;-68
2023/09/13 07:18:36;;;;;;;9.48;8.48;;;19.70;99.90;;;;;;4890687;29;20056;-69
2023/09/13 07:21:03;;;;;;;9.73;8.02;;;19.80;99.90;;;;;;4896970;29;20176;-68
2023/09/13 07:23:35;;;;;;;13.80;8.60;;;19.80;99.90;;;;;;4897682;29;20725;-68
2023/09/13 07:26:07;;;;;;;16.88;8.60;;;19.80;99.90;;;;;;4896358;29;20047;-68
2023/09/13 07:28:39;;;;;;;10.10;8.65;;;19.90;99.90;;;;;;4895520;29;20054;-68
2023/09/13 07:31:12;;;;;;;10.25;8.75;;;19.90;99.90;;;;;;4909499;29;20083;-69
2023/09/13 07:33:44;;;;;;;9.10;8.20;;;19.90;99.90;;;;;;4891924;29;20063;-68
2023/09/13 07:36:15;;;;;;;13.10;9.40;;;20.00;99.90;;;;;;4889631;29;20036;-68
2023/09/13 07:38:47;;;;;;;9.45;8.38;;;20.10;99.90;;;;;;4896850;29;20053;-68
2023/09/13 07:41:14;;;;;;;10.57;8.93;;;20.20;99.90;;;;;;4897113;29;20068;-68
2023/09/13 07:43:41;;;;;;;8.90;8.00;;;20.20;99.90;;;;;;4893689;29;20049;-68
2023/09/13 07:46:13;;;;;;;11.43;9.25;;;20.20;99.90;;;;;;4901652;29;20055;-68
2023/09/13 07:48:45;;;;;;;9.15;7.93;;;20.20;99.90;;;;;;4896072;29;20127;-68
2023/09/13 07:51:12;;;;;;;10.45;7.85;;;20.30;99.90;;;;;;4897305;29;20037;-68
2023/09/13 07:53:44;;;;;;;11.00;8.85;;;20.30;99.90;;;;;;4906828;29;20128;-68
2023/09/13 07:56:17;;;;;;;11.23;9.10;;;20.30;99.90;;;;;;4896631;29;20036;-68
2023/09/13 07:58:49;;;;;;;;;;;20.30;99.90;;;;;;4877970;29;20053;-69
2023/09/13 08:01:21;;;;;;;8.63;7.75;;;20.40;99.90;;;;;;4887274;29;20292;-68
2023/09/13 08:03:53;;;;;;;13.43;9.65;;;20.50;99.90;;;;;;4897814;29;20048;-68
2023/09/13 08:06:22;;;;;;;9.80;8.88;;;20.50;99.90;;;;;;4893712;29;20048;-68
2023/09/13 08:08:49;;;;;;;12.98;8.80;;;20.50;99.90;;;;;;4906533;29;20041;-68
2023/09/13 08:11:17;;;;;;;11.32;8.77;;;20.60;99.90;;;;;;4893808;29;20139;-66
2023/09/13 08:13:44;;;;;;;14.35;9.57;;;20.70;99.90;;;;;;4893893;29;20055;-68
2023/09/13 08:16:16;;;;;;;10.10;9.02;;;20.80;99.90;;;;;;4896811;29;20045;-68
2023/09/13 08:18:44;;;;;;;14.38;9.05;;;20.80;99.90;;;;;;4897038;29;20051;-68
2023/09/13 08:21:16;;;;;;;12.55;9.25;;;20.80;99.90;;;;;;4898226;29;20853;-68
2023/09/13 08:23:43;;;;;;;10.60;8.25;;;20.90;99.90;;;;;;4890864;29;20128;-68
2023/09/13 08:26:16;;;;;;;10.15;8.57;;;20.70;99.90;;;;;;4896829;29;20048;-68
2023/09/13 08:28:49;;;;;;;10.02;8.15;;;20.70;99.90;;;;;;4893290;29;20044;-65
2023/09/13 08:31:25;;;;;;;10.52;8.82;;;20.70;99.90;;;;;;4906002;29;20135;-68
2023/09/13 08:33:53;;;;;;;12.45;8.98;;;20.70;99.90;;;;;;4893972;29;20143;-68
2023/09/13 08:36:25;;;;;;;15.40;8.95;;;20.60;99.90;;;;;;4894512;29;20032;-68
2023/09/13 08:38:58;;;;;;;8.60;7.75;;;20.70;99.90;;;;;;4891609;29;20119;-68
2023/09/13 08:41:30;;;;;;;;;;;20.70;99.90;;;;;;4885856;29;20040;-67
2023/09/13 08:43:59;;;;;;;11.55;9.25;;;20.80;99.90;;;;;;4903382;29;19953;-68
2023/09/13 08:46:32;;;;;;;9.35;7.93;;;20.80;99.90;;;;;;4898906;29;20132;-68
2023/09/13 08:49:07;;;;;;;8.82;7.93;;;20.90;99.90;;;;;;4898225;29;20044;-66
2023/09/13 08:51:40;;;;;;;11.85;7.63;;;21.00;99.90;;;;;;4876564;29;20842;-68
2023/09/13 08:54:09;;;;;;;10.00;7.57;;;21.00;99.90;;;;;;4904577;29;20036;-67
2023/09/13 08:56:42;;;;;;;10.65;7.80;;;20.90;99.90;;;;;;4895974;29;20041;-68
2023/09/13 08:59:17;;;;;;;9.48;7.40;;;21.00;99.90;;;;;;4885598;29;20127;-68
2023/09/13 09:01:53;;;;;;;9.15;7.90;;;21.00;99.90;;;;;;4892578;29;20128;-67
2023/09/13 09:04:25;;;;;;;9.48;8.52;;;21.00;99.90;;;;;;4886097;29;20045;-68
2023/09/13 09:06:57;;;;;;;9.32;8.20;;;21.00;99.90;;;;;;4873385;29;20055;-68
2023/09/13 09:09:31;;;;;;;11.93;8.20;;;21.00;99.90;;;;;;4896838;29;20549;-68
2023/09/13 09:12:05;;;;;;;11.13;8.23;;;21.00;99.90;;;;;;4888983;29;20067;-68
2023/09/13 09:14:34;;;;;;;10.05;8.98;;;21.00;99.90;;;;;;4885236;29;20036;-66
2023/09/13 09:17:06;;;;;;;9.25;8.35;;;20.90;99.90;;;;;;4894852;29;21016;-68
2023/09/13 09:19:38;;;;;;;10.75;9.07;;;20.90;99.90;;;;;;4886455;29;20076;-68
2023/09/13 09:22:05;;;;;;;11.23;8.95;;;21.00;99.90;;;;;;4889674;29;20060;-68
2023/09/13 09:24:38;;;;;;;9.25;7.93;;;21.10;99.90;;;;;;4881694;29;20869;-68
2023/09/13 09:27:05;;;;;;;9.77;8.65;;;21.10;99.90;;;;;;4895547;29;20044;-68
2023/09/13 09:29:42;;;;;;;10.75;8.18;;;21.10;99.90;;;;;;4892216;29;20100;-68
2023/09/13 09:32:12;;;;;;;10.07;9.05;;;21.10;99.90;;;;;;4883649;29;20055;-68
2023/09/13 09:34:44;;;;;;;11.00;9.68;;;21.20;99.90;;;;;;4886477;29;20037;-68
2023/09/13 09:37:17;;;;;;;10.48;9.40;;;21.30;99.90;;;;;;4898533;29;20052;-68
2023/09/13 09:39:49;;;;;;;10.43;9.27;;;21.30;99.90;;;;;;4888206;29;20126;-67
2023/09/13 09:42:16;;;;;;;10.38;9.35;;;21.20;99.90;;;;;;4893034;29;20559;-68
2023/09/13 09:44:48;;;;;;;11.00;9.38;;;21.20;99.90;;;;;;4894471;29;20856;-68
2023/09/13 09:47:20;;;;;;;11.27;9.73;;;21.20;99.90;;;;;;4887380;29;20087;-68
2023/09/13 09:49:52;;;;;;;10.15;9.13;;;21.20;99.90;;;;;;4887859;29;20059;-68
2023/09/13 09:52:24;;;;;;;10.48;9.35;;;21.20;99.90;;;;;;4889065;29;20041;-68
2023/09/13 09:54:56;;;;;;;13.35;10.13;;;21.30;99.90;;;;;;4889167;29;20386;-68
2023/09/13 09:57:28;;;;;;;11.30;9.23;;;21.30;99.90;;;;;;4882115;29;20045;-68
2023/09/13 10:00:00;;;;;;;10.80;8.43;;;21.30;99.90;;;;;;4889185;29;20053;-66
2023/09/13 10:02:35;;;;;;;10.63;8.75;;;21.30;99.90;;;;;;4905810;29;20432;-68
2023/09/13 10:05:07;;;;;;;9.70;8.68;;;21.30;99.90;;;;;;4894489;29;20049;-68
2023/09/13 10:07:40;;;;;;;9.90;8.88;;;21.40;99.90;;;;;;4901698;29;20565;-68
2023/09/13 10:10:28;;;;;;;12.68;8.55;;;21.40;99.90;;;;;;4885543;29;20060;-68
2023/09/13 10:13:00;;;;;;;9.82;8.65;;;21.40;99.90;;;;;;4887652;29;20849;-68
2023/09/13 10:15:32;;;;;;;10.18;9.18;;;21.40;99.90;;;;;;4883805;29;20390;-68
2023/09/13 10:18:06;;;;;;;13.13;9.02;;;21.30;99.90;;;;;;4895566;29;20133;-68
2023/09/13 10:20:42;;;;;;;8.82;7.93;;;21.40;99.90;;;;;;4881927;29;20056;-68
2023/09/13 10:23:12;;;;;;;9.27;8.43;;;21.30;99.90;;;;;;4904474;29;20044;-68
2023/09/13 10:25:47;;;;;;;9.52;8.52;;;21.30;99.90;;;;;;4883795;29;20041;-68
2023/09/13 10:28:20;;;;;;;10.35;9.25;;;21.40;99.90;;;;;;4893141;29;20138;-68
2023/09/13 10:30:58;;;;;;;11.32;8.77;;;21.30;99.90;;;;;;4892366;29;20041;-68
2023/09/13 10:33:32;;;;;;;10.20;8.95;;;21.40;99.90;;;;;;4889145;29;20131;-68
2023/09/13 10:36:07;;;;;;;11.52;9.95;;;21.40;99.90;;;;;;4897132;29;20052;-68
2023/09/13 10:38:49;;;;;;;10.90;9.88;;;21.50;99.90;;;;;;4900508;29;20116;-68
2023/09/13 10:41:22;;;;;;;10.83;9.73;;;21.50;99.90;;;;;;4890831;29;20037;-68
2023/09/13 10:43:56;;;;;;;10.70;9.32;;;21.50;99.90;;;;;;4889714;29;20068;-68
2023/09/13 10:46:23;;;;;;;9.73;8.70;;;21.50;99.90;;;;;;4902121;29;20052;-68
2023/09/13 10:48:56;;;;;;;10.88;9.07;;;21.60;99.90;;;;;;4899138;29;20056;-68
2023/09/13 10:51:25;;;;;;;11.50;8.90;;;21.60;99.90;;;;;;4893046;29;20119;-68
2023/09/13 10:54:01;;;;;;;11.48;8.63;;;21.60;99.90;;;;;;4892705;29;20123;-68
2023/09/13 10:56:33;;;;;;;9.30;8.07;;;21.80;99.90;;;;;;4876156;29;20037;-68
2023/09/13 10:59:05;;;;;;;10.10;8.75;;;21.90;99.90;;;;;;4890617;29;20037;-68
2023/09/13 11:01:45;;;;;;;8.95;7.72;;;21.90;99.90;;;;;;4887854;29;20531;-67
2023/09/13 11:04:14;;;;;;;11.00;9.40;;;22.00;99.90;;;;;;4896212;29;20083;-68
2023/09/13 11:06:43;;;;;;;9.63;8.63;;;22.10;99.90;;;;;;4901075;29;20418;-68
2023/09/13 11:09:26;;;;;;;14.07;9.57;;;22.20;99.90;;;;;;4893534;29;20538;-68
2023/09/13 11:11:59;;;;;;;6.70;5.38;;;22.40;99.90;;;;;;4886910;29;20075;-68
2023/09/13 11:14:31;;;;;;;6.53;5.43;;;22.50;99.90;;;;;;4892576;29;20498;-68
2023/09/13 11:17:37;;;;;;;6.37;5.33;;;22.50;99.90;;;;;;4893677;29;20041;-68
2023/09/13 11:20:28;;;;;;;6.97;6.25;;;22.50;99.90;;;;;;4891723;29;20300;-68
2023/09/13 11:23:06;;;;;;;7.57;5.63;;;22.50;99.90;;;;;;4879199;29;20053;-68
2023/09/13 11:25:55;;;;;;;8.13;6.13;;;22.60;99.90;;;;;;4893040;29;20048;-68
2023/09/13 11:28:37;;;;;;;6.53;5.93;;;22.60;99.90;;;;;;4899515;29;20604;-68
2023/09/13 11:31:10;;;;;;;6.40;5.80;;;22.60;99.90;;;;;;4889911;29;20072;-68
2023/09/13 11:33:55;;;;;;;8.32;6.70;;;22.70;99.90;;;;;;4886589;29;20104;-68
2023/09/13 11:36:24;;;;;;;7.68;6.63;;;22.60;99.90;;;;;;4901995;29;20096;-68
2023/09/13 11:38:55;;;;;;;10.40;7.45;;;22.60;99.90;;;;;;4892821;29;20128;-68
2023/09/13 11:41:22;;;;;;;7.75;6.72;;;22.60;99.90;;;;;;4890490;29;20520;-68
2023/09/13 11:43:54;;;;;;;8.87;7.13;;;22.70;99.90;;;;;;4901840;29;20330;-68
2023/09/13 11:46:27;;;;;;;8.40;7.57;;;22.80;99.90;;;;;;4883567;29;20508;-68
2023/09/13 11:48:59;;;;;;;8.65;7.32;;;22.80;99.90;;;;;;4890391;29;20045;-68
2023/09/13 11:51:32;;;;;;;9.85;7.57;;;22.80;99.90;;;;;;4888068;29;20151;-67
2023/09/13 11:54:16;;;;;;;8.05;7.00;;;22.80;99.90;;;;;;4889619;29;20442;-68
2023/09/13 11:56:43;;;;;;;7.25;6.55;;;22.70;99.90;;;;;;4891131;29;20689;-67
2023/09/13 11:59:16;;;;;;;6.80;6.20;;;22.60;99.90;;;;;;4891444;29;20528;-68
2023/09/13 12:01:49;;;;;;;6.40;5.75;;;22.50;99.90;;;;;;4895274;29;20065;-68
2023/09/13 12:04:25;;;;;;;;;;;22.50;99.90;;;;;;4894506;29;20045;-68
2023/09/13 12:06:57;;;;;;;8.95;6.43;;;22.40;99.90;;;;;;4891530;29;19934;-68
2023/09/13 12:09:24;;;;;;;7.18;6.22;;;22.30;99.90;;;;;;4907822;29;20040;-67
2023/09/13 12:11:57;;;;;;;8.38;6.50;;;22.30;99.90;;;;;;4893756;29;20055;-68
2023/09/13 12:14:31;;;;;;;7.45;6.70;;;22.30;99.90;;;;;;4894692;29;20131;-68
2023/09/13 12:16:58;;;;;;;7.95;7.15;;;22.40;99.90;;;;;;4892440;29;20036;-68
2023/09/13 12:19:35;;;;;;;7.18;6.30;;;22.40;99.90;;;;;;4879099;29;20040;-68
2023/09/13 12:22:02;;;;;;;7.80;6.38;;;22.40;99.90;;;;;;4890304;29;20535;-68
2023/09/13 12:24:30;;;;;;;9.57;6.28;;;22.30;99.90;;;;;;4889067;29;20409;-68
2023/09/13 12:26:57;;;;;;;7.40;5.97;;;22.30;99.90;;;;;;4903934;29;20048;-68
2023/09/13 12:29:29;;;;;;;7.53;6.30;;;22.20;99.90;;;;;;4905992;29;20048;-68
2023/09/13 12:32:02;;;;;;;7.97;6.65;;;22.20;99.90;;;;;;4892144;29;20105;-68
2023/09/13 12:34:34;;;;;;;6.90;6.28;;;22.20;99.90;;;;;;4883856;29;20041;-68
2023/09/13 12:37:01;;;;;;;7.63;6.57;;;22.20;99.90;;;;;;4885052;29;20517;-68
2023/09/13 12:39:33;;;;;;;7.38;5.60;;;22.20;99.90;;;;;;4885322;29;20048;-68
2023/09/13 12:42:10;;;;;;;9.63;6.07;;;22.20;99.90;;;;;;4891167;29;20043;-68
2023/09/13 12:44:38;;;;;;;7.15;6.03;;;22.30;99.90;;;;;;4868167;29;20044;-67
2023/09/13 12:47:09;;;;;;;7.47;5.80;;;22.30;99.90;;;;;;4895013;29;20406;-67
2023/09/13 12:49:41;;;;;;;6.90;6.28;;;22.40;99.90;;;;;;4895203;29;20068;-68
2023/09/13 12:52:16;;;;;;;6.33;5.73;;;22.50;99.90;;;;;;4888455;29;20113;-68
2023/09/13 12:54:44;;;;;;;5.78;4.82;;;22.40;99.90;;;;;;4890026;29;20041;-68
2023/09/13 12:57:16;;;;;;;10.30;7.57;;;22.40;99.90;;;;;;4881670;29;20059;-68
2023/09/13 12:59:50;;;;;;;11.40;7.50;;;22.40;99.90;;;;;;4897152;29;20412;-68
2023/09/13 13:02:25;;;;;;;7.03;5.60;;;22.40;99.90;;;;;;4887856;29;20053;-68
2023/09/13 13:04:53;;;;;;;7.30;5.30;;;22.40;99.90;;;;;;4885846;29;20131;-68
2023/09/13 13:07:33;;;;;;;6.70;6.03;;;22.50;99.90;;;;;;4904940;29;20053;-68
2023/09/13 13:10:05;;;;;;;9.50;6.15;;;22.50;99.90;;;;;;4884497;29;20056;-68